createdAt,value
2023-05-04T00:01:11.507Z,9.37
2023-05-04T00:06:13.349Z,9.47
2023-05-04T00:11:15.182Z,9.44
2023-05-04T00:16:17.073Z,9.29
2023-05-04T00:21:18.859Z,9.14
2023-05-04T00:26:21.216Z,8.96
2023-05-04T00:31:23.734Z,8.93
2023-05-04T00:36:25.869Z,8.88
2023-05-04T00:41:27.765Z,8.89
2023-05-04T00:46:30.099Z,8.96
2023-05-04T00:51:33.421Z,9.14
2023-05-04T00:56:41.232Z,9.26
2023-05-04T01:01:43.195Z,9.25
2023-05-04T01:06:52.796Z,9.27
2023-05-04T01:12:08.343Z,9.12
2023-05-04T01:17:11.952Z,9.02
2023-05-04T01:22:13.876Z,8.98
2023-05-04T01:27:23.319Z,9.01
2023-05-04T01:32:28.535Z,8.96
2023-05-04T01:37:33.060Z,8.96
2023-05-04T01:42:35.267Z,8.98
2023-05-04T01:47:37.075Z,9.02
2023-05-04T01:52:40.000Z,8.97
2023-05-04T01:57:41.790Z,8.93
2023-05-04T02:02:43.918Z,8.89
2023-05-04T02:07:49.524Z,8.87
2023-05-04T02:12:52.305Z,8.73
2023-05-04T02:17:54.241Z,8.57
2023-05-04T02:22:56.271Z,8.52
2023-05-04T02:27:58.055Z,8.64
2023-05-04T02:32:59.914Z,8.72
2023-05-04T02:38:01.808Z,8.63
2023-05-04T02:43:03.636Z,8.57
2023-05-04T02:48:05.645Z,8.46
2023-05-04T02:53:07.447Z,8.49
2023-05-04T02:58:09.268Z,8.32
2023-05-04T03:03:12.546Z,8.31
2023-05-04T03:08:14.386Z,8.32
2023-05-04T03:13:16.799Z,8.16
2023-05-04T03:18:18.849Z,8.18
2023-05-04T03:23:23.028Z,8.18
2023-05-04T03:28:25.184Z,8.19
2023-05-04T03:33:27.043Z,8.22
2023-05-04T03:38:31.831Z,8.08
2023-05-04T03:43:34.360Z,7.99
2023-05-04T03:48:36.564Z,8.02
2023-05-04T03:53:41.736Z,8.03
2023-05-04T03:58:44.721Z,8.09
2023-05-04T04:03:49.722Z,8.15
2023-05-04T04:08:53.962Z,8.30
2023-05-04T04:13:56.029Z,8.44
2023-05-04T04:18:58.248Z,8.61
2023-05-04T04:24:00.000Z,8.74
2023-05-04T04:29:02.338Z,8.89
2023-05-04T04:34:04.189Z,9.11
2023-05-04T04:39:06.401Z,9.22
2023-05-04T04:44:08.185Z,9.33
2023-05-04T04:49:10.258Z,9.47
2023-05-04T04:54:12.022Z,9.58
2023-05-04T04:59:14.159Z,9.67
2023-05-04T05:04:16.100Z,9.79
2023-05-04T05:09:18.000Z,9.89
2023-05-04T05:14:19.749Z,10.00
2023-05-04T05:19:21.520Z,10.14
2023-05-04T05:24:23.453Z,10.32
2023-05-04T05:29:25.473Z,10.51
2023-05-04T05:34:27.388Z,10.69
2023-05-04T05:39:29.397Z,10.87
2023-05-04T05:44:31.384Z,11.07
2023-05-04T05:49:33.285Z,11.28
2023-05-04T05:54:35.426Z,11.51
2023-05-04T05:59:37.236Z,11.77
2023-05-04T06:04:39.396Z,12.09
2023-05-04T06:09:41.494Z,12.43
2023-05-04T06:14:43.722Z,12.68
2023-05-04T06:19:48.096Z,13.01
2023-05-04T06:24:51.368Z,13.31
2023-05-04T06:29:53.158Z,13.53
2023-05-04T06:34:59.530Z,13.90
2023-05-04T06:40:01.316Z,14.17
2023-05-04T06:45:03.332Z,14.42
2023-05-04T06:50:12.173Z,14.66
2023-05-04T06:55:14.032Z,14.98
2023-05-04T07:00:15.984Z,15.35
2023-05-04T07:05:17.881Z,15.71
2023-05-04T07:10:19.735Z,16.03
2023-05-04T07:15:21.706Z,16.30
2023-05-04T07:20:25.858Z,16.51
2023-05-04T07:25:28.957Z,16.74
2023-05-04T07:30:30.846Z,16.90
2023-05-04T07:35:32.627Z,17.06
2023-05-04T07:40:34.533Z,17.21
2023-05-04T07:45:36.394Z,17.34
2023-05-04T07:50:38.244Z,17.61
2023-05-04T07:55:40.144Z,17.87
2023-05-04T08:00:41.980Z,18.08
2023-05-04T08:05:43.846Z,18.29
2023-05-04T08:10:45.730Z,18.44
2023-05-04T08:15:47.559Z,18.31
2023-05-04T08:20:49.446Z,18.38
2023-05-04T08:25:52.458Z,18.57
2023-05-04T08:30:54.288Z,18.83
2023-05-04T08:35:56.350Z,18.94
2023-05-04T08:40:58.234Z,18.99
2023-05-04T08:46:00.236Z,19.23
2023-05-04T08:51:04.513Z,19.41
2023-05-04T08:56:09.610Z,19.57
2023-05-04T09:01:12.399Z,19.81
2023-05-04T09:06:14.870Z,19.98
2023-05-04T09:11:17.252Z,20.08
2023-05-04T09:16:20.185Z,20.14
2023-05-04T09:21:30.220Z,20.22
2023-05-04T09:26:33.079Z,20.18
2023-05-04T09:31:52.478Z,20.10
2023-05-04T09:37:02.124Z,20.27
2023-05-04T09:42:05.861Z,20.51
2023-05-04T09:47:08.547Z,20.51
2023-05-04T09:52:12.060Z,20.62
2023-05-04T09:57:15.557Z,20.72
2023-05-04T10:02:22.494Z,20.92
2023-05-04T10:07:25.302Z,21.02
2023-05-04T10:12:27.686Z,21.01
2023-05-04T10:17:47.351Z,21.17
2023-05-04T10:23:23.674Z,21.27
2023-05-04T10:28:57.085Z,21.23
2023-05-04T10:33:58.929Z,21.35
2023-05-04T10:39:01.504Z,21.18
2023-05-04T10:44:06.734Z,21.31
2023-05-04T10:49:17.913Z,21.53
2023-05-04T10:54:20.067Z,21.64
2023-05-04T10:59:22.033Z,21.73
2023-05-04T11:04:24.624Z,21.97
2023-05-04T11:09:28.284Z,22.09
2023-05-04T11:14:30.404Z,22.32
2023-05-04T11:19:33.603Z,22.42
2023-05-04T11:24:43.553Z,22.43
2023-05-04T11:30:06.048Z,22.43
2023-05-04T11:35:09.794Z,22.15
2023-05-04T11:40:14.204Z,22.29
2023-05-04T11:45:22.186Z,22.52
2023-05-04T11:50:25.328Z,22.69
2023-05-04T11:55:31.998Z,22.74
2023-05-04T12:00:40.390Z,22.88
2023-05-04T12:05:50.936Z,22.96
2023-05-04T12:11:08.126Z,23.04
2023-05-04T12:16:18.449Z,23.06
2023-05-04T12:21:23.507Z,23.20
2023-05-04T12:26:26.282Z,23.21
2023-05-04T12:31:28.765Z,23.26
2023-05-04T12:36:30.780Z,23.27
2023-05-04T12:41:32.699Z,23.31
2023-05-04T12:46:34.630Z,23.48
2023-05-04T12:51:36.884Z,23.48
2023-05-04T12:56:39.865Z,23.45
2023-05-04T13:01:41.806Z,23.46
2023-05-04T13:06:44.287Z,23.58
2023-05-04T13:11:47.631Z,23.48
2023-05-04T13:16:51.040Z,23.49
2023-05-04T13:21:52.937Z,23.43
2023-05-04T13:26:54.759Z,23.30
2023-05-04T13:31:57.391Z,23.40
2023-05-04T13:36:59.246Z,23.51
2023-05-04T13:42:01.032Z,23.57
2023-05-04T13:47:03.732Z,23.58
2023-05-04T13:52:06.240Z,23.55
2023-05-04T13:57:08.037Z,23.49
2023-05-04T14:02:09.861Z,23.54
2023-05-04T14:07:11.676Z,23.60
2023-05-04T14:12:13.452Z,23.48
2023-05-04T14:17:15.244Z,23.50
2023-05-04T14:22:17.277Z,23.51
2023-05-04T14:27:21.112Z,23.41
2023-05-04T14:32:23.247Z,23.42
2023-05-04T14:37:25.077Z,23.41
2023-05-04T14:42:27.020Z,23.38
2023-05-04T14:47:29.167Z,23.35
2023-05-04T14:52:31.195Z,23.32
2023-05-04T14:57:33.086Z,23.33
2023-05-04T15:02:35.890Z,23.29
2023-05-04T15:07:37.893Z,23.28
2023-05-04T15:12:40.248Z,23.22
2023-05-04T15:17:42.266Z,23.18
2023-05-04T15:22:52.220Z,23.20
2023-05-04T15:27:55.522Z,23.19
2023-05-04T15:32:57.528Z,23.06
2023-05-04T15:37:59.761Z,22.95
2023-05-04T15:43:01.544Z,22.82
2023-05-04T15:48:03.628Z,22.83
2023-05-04T15:53:05.452Z,22.80
2023-05-04T15:58:07.724Z,22.74
2023-05-04T16:03:09.567Z,22.71
2023-05-04T16:08:11.617Z,22.69
2023-05-04T16:13:13.511Z,22.67
2023-05-04T16:18:15.512Z,22.64
2023-05-04T16:23:18.460Z,22.59
2023-05-04T16:28:20.366Z,22.52
2023-05-04T16:33:22.179Z,22.39
2023-05-04T16:38:24.164Z,22.34
2023-05-04T16:43:26.114Z,22.37
2023-05-04T16:48:27.926Z,22.34
2023-05-04T16:53:29.696Z,22.28
2023-05-04T16:58:31.479Z,22.11
2023-05-04T17:03:33.293Z,22.00
2023-05-04T17:08:35.114Z,21.85
2023-05-04T17:13:37.296Z,21.70
2023-05-04T17:18:39.077Z,21.62
2023-05-04T17:23:41.129Z,21.52
2023-05-04T17:28:42.953Z,21.45
2023-05-04T17:33:44.751Z,21.43
2023-05-04T17:38:46.574Z,21.33
2023-05-04T17:43:50.244Z,21.24
2023-05-04T17:48:54.588Z,21.14
2023-05-04T17:53:56.501Z,21.08
2023-05-04T17:58:58.783Z,21.06
2023-05-04T18:04:03.295Z,21.01
2023-05-04T18:09:05.145Z,20.99
2023-05-04T18:14:07.190Z,20.97
2023-05-04T18:19:09.112Z,20.85
2023-05-04T18:24:10.918Z,20.77
2023-05-04T18:34:19.427Z,20.63
2023-05-04T18:39:21.201Z,20.40
2023-05-04T18:44:23.091Z,20.24
2023-05-04T18:49:25.044Z,20.07
2023-05-04T18:54:30.163Z,19.90
2023-05-04T18:59:33.972Z,19.71
2023-05-04T19:04:35.821Z,19.54
2023-05-04T19:09:37.948Z,19.41
2023-05-04T19:14:40.672Z,19.35
2023-05-04T19:19:42.480Z,19.30
2023-05-04T19:24:44.546Z,19.23
2023-05-04T19:29:47.242Z,19.06
2023-05-04T19:34:48.985Z,18.84
2023-05-04T19:39:51.050Z,18.57
2023-05-04T19:44:53.285Z,18.27
2023-05-04T19:49:55.301Z,18.06
2023-05-04T19:54:57.092Z,17.88
2023-05-04T19:59:59.324Z,17.64
2023-05-04T20:05:01.192Z,17.57
2023-05-04T20:10:03.469Z,17.53
2023-05-04T20:15:06.666Z,17.56
2023-05-04T20:20:09.831Z,17.47
2023-05-04T20:25:12.014Z,17.36
2023-05-04T20:30:13.916Z,17.30
2023-05-04T20:35:16.524Z,17.18
2023-05-04T20:40:18.379Z,17.06
2023-05-04T20:45:20.807Z,17.06
2023-05-04T20:50:23.149Z,17.09
2023-05-04T20:55:24.945Z,17.13
2023-05-04T21:00:27.205Z,17.18
2023-05-04T21:05:29.006Z,17.16
2023-05-04T21:10:30.876Z,17.08
2023-05-04T21:15:32.724Z,17.04
2023-05-04T21:20:34.509Z,16.92
2023-05-04T21:25:36.393Z,16.74
2023-05-04T21:30:42.957Z,16.44
2023-05-04T21:35:45.086Z,16.26
2023-05-04T21:40:46.977Z,16.10
2023-05-04T21:45:48.726Z,16.01
2023-05-04T21:50:50.490Z,15.93
2023-05-04T21:55:52.524Z,15.90
2023-05-04T22:00:55.329Z,15.68
2023-05-04T22:06:00.595Z,15.51
2023-05-04T22:11:02.548Z,15.31
2023-05-04T22:16:04.630Z,15.13
2023-05-04T22:21:06.591Z,14.98
2023-05-04T22:26:08.417Z,15.01
2023-05-04T22:31:10.506Z,14.92
2023-05-04T22:36:12.669Z,14.76
2023-05-04T22:41:15.083Z,14.73
2023-05-04T22:46:17.726Z,14.60
2023-05-04T22:51:19.508Z,14.53
2023-05-04T22:56:21.415Z,14.39
2023-05-04T23:01:23.558Z,14.22
2023-05-04T23:06:25.397Z,14.15
2023-05-04T23:11:27.292Z,14.12
2023-05-04T23:16:29.210Z,14.22
2023-05-04T23:21:31.553Z,14.31
2023-05-04T23:26:33.431Z,14.28
2023-05-04T23:31:35.256Z,14.20
2023-05-04T23:36:37.748Z,14.08
2023-05-04T23:41:39.539Z,14.00
2023-05-04T23:46:41.423Z,13.97
2023-05-04T23:51:43.349Z,13.81
2023-05-04T23:56:45.200Z,13.67
